Douglas B — WDH8545 — position and weather

sailwx.info

Track history (hours):
 
Tides and Currents Weather Stations Pressure Air Temp Water Temp Dewpoint Dewpoint Depression Visibility Wind Speed Wind Dir Waves Ship Positions

Douglas B

Owner: TK TOWING, INC, MORGAN CITY, LA. More information available from US FCC via Universal Licensing System and Coast Guard Vessel Documentation Center.

Last reported at 2018-Jun-08 22:20 UTC. Time now 2018-Jun-20 22:38 UTC.
Position N 29°50' W 091°59'.
Warning: this ship's position is 12 days out of date.

Length 22 m; draft 8 m.

Type: Towing. MMSI: 367659090.

Date/timePositionNaut miles runAvg speedWind from/ knotsBaromVisibWave heightAir tempDewpointWater temp
2018-Jun-08 22:20N 29°50' W 091°59'2 6.5
2018-Jun-08 22:00N 29°49' W 092°01'4 6.5
2018-Jun-08 21:27N 29°48' W 092°05'3 6.4
2018-Jun-08 21:00N 29°47' W 092°08'3 5.8
2018-Jun-08 20:30N 29°47' W 092°12'1 2.5
2018-Jun-08 20:00N 29°47' W 092°13'3 5.9
2018-Jun-08 19:30N 29°49' W 092°16'3 5.9
2018-Jun-08 19:00N 29°50' W 092°19'40 5.8
2018-Jun-08 12:12N 29°56' W 093°04'2 6.0
2018-Jun-08 11:48N 29°56' W 093°07'2 5.2
2018-Jun-08 11:20N 29°56' W 093°10'2 4.6
2018-Jun-08 11:00N 29°57' W 093°11'2 5.0
2018-Jun-08 10:31N 29°59' W 093°13'1 2.0
2018-Jun-08 10:01N 29°60' W 093°13'2 4.8
2018-Jun-08 09:31N 30°02' W 093°15'2 4.4
2018-Jun-08 09:00N 30°04' W 093°16'2 3.7
2018-Jun-08 08:30N 30°05' W 093°18'1 1.4
2018-Jun-08 08:00N 30°06' W 093°18'0 1.0
2018-Jun-08 07:30N 30°06' W 093°18'1 1.3
2018-Jun-08 07:00N 30°06' W 093°19'0 0.0
2018-Jun-08 06:30N 30°06' W 093°19'0 0.1
2018-Jun-08 06:00N 30°06' W 093°19'0 0.1
2018-Jun-08 05:31N 30°06' W 093°19'0 0.0
2018-Jun-08 05:00N 30°06' W 093°19'0 0.0
2018-Jun-08 04:31N 30°06' W 093°19'0 0.0
2018-Jun-08 04:00N 30°06' W 093°19'0 0.0
2018-Jun-08 03:31N 30°06' W 093°19'0 0.0
2018-Jun-08 03:01N 30°06' W 093°19'0 0.0
2018-Jun-08 02:30N 30°06' W 093°19'0 0.0
2018-Jun-08 02:01N 30°06' W 093°19'1 2.3
2018-Jun-08 01:30N 30°07' W 093°20'3 6.6
2018-Jun-08 01:01N 30°10' W 093°19'3 6.7
2018-Jun-08 00:30N 30°12' W 093°16'2 4.2
2018-Jun-08 00:00N 30°14' W 093°15'1 0.3
2018-Jun-07 21:23N 30°15' W 093°15'0 0.0
2018-Jun-07 20:55N 30°15' W 093°15'0 0.1
2018-Jun-07 20:28N 30°15' W 093°15'0 0.0
2018-Jun-07 18:04N 30°15' W 093°15'0 0.0
2018-Jun-07 18:00N 30°15' W 093°15'0 0.0
2018-Jun-07 17:11N 30°15' W 093°15'0 0.0
2018-Jun-07 16:59N 30°15' W 093°15'0 0.0
2018-Jun-07 16:30N 30°15' W 093°15'0 0.0
2018-Jun-07 14:51N 30°15' W 093°15'0 0.2
2018-Jun-07 14:23N 30°15' W 093°15'1 2.8
2018-Jun-07 13:59N 30°14' W 093°15'1 2.3
2018-Jun-07 13:30N 30°13' W 093°16'0 0.7
2018-Jun-07 13:00N 30°13' W 093°15'0 0.0
2018-Jun-07 12:29N 30°13' W 093°15'0 0.0
2018-Jun-07 12:01N 30°13' W 093°15'0 0.0
2018-Jun-07 11:30N 30°13' W 093°15'0 0.1
2018-Jun-07 11:00N 30°13' W 093°15'0 0.1
2018-Jun-07 10:30N 30°13' W 093°15'3 5.9
2018-Jun-07 10:01N 30°11' W 093°18'3 6.4
2018-Jun-07 09:31N 30°08' W 093°20'3 5.2
2018-Jun-07 09:01N 30°06' W 093°19'2 3.1
2018-Jun-07 08:31N 30°05' W 093°18'1 1.8
2018-Jun-07 07:59N 30°05' W 093°17'0 0.0
2018-Jun-07 07:31N 30°05' W 093°17'0 0.0
2018-Jun-07 06:57N 30°05' W 093°17'0 0.0
2018-Jun-07 06:31N 30°05' W 093°17'0 0.0
2018-Jun-07 06:00N 30°05' W 093°17'0 0.0
2018-Jun-07 05:30N 30°05' W 093°17'0 0.0
2018-Jun-07 05:01N 30°05' W 093°17'0 0.0
2018-Jun-07 04:30N 30°05' W 093°17'0 0.0
2018-Jun-07 04:01N 30°05' W 093°17'0 0.0
2018-Jun-07 03:27N 30°05' W 093°17'0 0.0
2018-Jun-07 03:01N 30°05' W 093°17'0 0.0
2018-Jun-07 02:30N 30°05' W 093°17'0 0.0
2018-Jun-07 02:00N 30°05' W 093°17'0 0.0
2018-Jun-07 01:30N 30°05' W 093°17'0 0.0
2018-Jun-07 01:00N 30°05' W 093°17'0 0.0
2018-Jun-07 00:30N 30°05' W 093°17'0 0.0
2018-Jun-07 00:00N 30°05' W 093°17'0 0.0
2018-Jun-06 23:30N 30°05' W 093°17'0 0.0
2018-Jun-06 22:59N 30°05' W 093°17'0 0.0
2018-Jun-06 22:30N 30°05' W 093°17'0 0.0
2018-Jun-06 21:59N 30°05' W 093°17'0 0.0
2018-Jun-06 21:30N 30°05' W 093°17'2 4.0
2018-Jun-06 21:00N 30°03' W 093°16'3 6.2
2018-Jun-06 20:30N 30°00' W 093°14'2 4.8
2018-Jun-06 20:00N 29°58' W 093°12'3 6.6
2018-Jun-06 19:30N 29°56' W 093°09'23 2.2
2018-Jun-06 09:14N 29°57' W 092°43'0 0.0
2018-Jun-06 08:57N 29°57' W 092°43'0 0.0
2018-Jun-06 08:30N 29°57' W 092°43'19 3.9
2018-Jun-06 03:31N 29°51' W 092°22'0 6.4
2018-Jun-06 03:30N 29°51' W 092°22'3 5.9
2018-Jun-06 03:00N 29°50' W 092°18'3 6.8
2018-Jun-06 02:30N 29°48' W 092°15'3 5.5
2018-Jun-06 02:00N 29°47' W 092°12'1 1.2
2018-Jun-06 01:30N 29°47' W 092°12'0 0.2
2018-Jun-06 01:00N 29°47' W 092°12'0 0.0
2018-Jun-06 00:30N 29°47' W 092°12'1 2.5
2018-Jun-06 00:00N 29°46' W 092°12'3 6.7
2018-Jun-05 23:30N 29°43' W 092°15'3 6.4
2018-Jun-05 23:00N 29°40' W 092°15'  
2018-Jun-03 16:44N 29°50' W 091°58'1 3.3
2018-Jun-03 16:29N 29°50' W 091°59'1 3.0
2018-Jun-03 16:00N 29°49' W 092°01'2 3.1
2018-Jun-03 15:31N 29°49' W 092°03'1 2.7
2018-Jun-03 15:00N 29°48' W 092°04'1 2.9
2018-Jun-03 14:30N 29°48' W 092°06'2 3.1
2018-Jun-03 14:01N 29°47' W 092°07'1 1.1
2018-Jun-03 13:31N 29°47' W 092°08'0 0.8
2018-Jun-03 13:00N 29°47' W 092°08'2 3.3
2018-Jun-03 12:30N 29°47' W 092°10'0 0.8
2018-Jun-03 12:00N 29°47' W 092°11'0 0.0
2018-Jun-03 11:30N 29°47' W 092°11'0 0.0
2018-Jun-03 11:00N 29°47' W 092°11'0 0.0
2018-Jun-03 10:30N 29°47' W 092°11'0 0.0
2018-Jun-03 10:00N 29°47' W 092°11'0 0.0
2018-Jun-03 09:29N 29°47' W 092°11'0 0.0
2018-Jun-03 09:01N 29°47' W 092°11'0 0.5
2018-Jun-03 08:30N 29°47' W 092°10'3 6.1
2018-Jun-03 08:00N 29°48' W 092°07'3 6.0
2018-Jun-03 07:30N 29°49' W 092°04'2 3.8
2018-Jun-03 07:00N 29°49' W 092°02'2 3.5
2018-Jun-03 06:30N 29°50' W 091°60'2 3.9
2018-Jun-03 06:00N 29°50' W 091°58'  
Track history (hours):
 
Tides and Currents Weather Stations Pressure Air Temp Water Temp Dewpoint Dewpoint Depression Visibility Wind Speed Wind Dir Waves Ship Positions

Douglas B

Owner: TK TOWING, INC, MORGAN CITY, LA. More information available from US FCC via Universal Licensing System and Coast Guard Vessel Documentation Center.

Last reported at 2018-Jun-08 22:20 UTC. Time now 2018-Jun-20 22:38 UTC.
Position N 29°50' W 091°59'.
Warning: this ship's position is 12 days out of date.

Length 22 m; draft 8 m.

Type: Towing. MMSI: 367659090.

Date/timePositionNaut miles runAvg speedWind from/ knotsBaromVisibWave heightAir tempDewpointWater temp
2018-Jun-08 22:20N 29°50' W 091°59'2 6.5
2018-Jun-08 22:00N 29°49' W 092°01'4 6.5
2018-Jun-08 21:27N 29°48' W 092°05'3 6.4
2018-Jun-08 21:00N 29°47' W 092°08'3 5.8
2018-Jun-08 20:30N 29°47' W 092°12'1 2.5
2018-Jun-08 20:00N 29°47' W 092°13'3 5.9
2018-Jun-08 19:30N 29°49' W 092°16'3 5.9
2018-Jun-08 19:00N 29°50' W 092°19'40 5.8
2018-Jun-08 12:12N 29°56' W 093°04'2 6.0
2018-Jun-08 11:48N 29°56' W 093°07'2 5.2
2018-Jun-08 11:20N 29°56' W 093°10'2 4.6
2018-Jun-08 11:00N 29°57' W 093°11'2 5.0
2018-Jun-08 10:31N 29°59' W 093°13'1 2.0
2018-Jun-08 10:01N 29°60' W 093°13'2 4.8
2018-Jun-08 09:31N 30°02' W 093°15'2 4.4
2018-Jun-08 09:00N 30°04' W 093°16'2 3.7
2018-Jun-08 08:30N 30°05' W 093°18'1 1.4
2018-Jun-08 08:00N 30°06' W 093°18'0 1.0
2018-Jun-08 07:30N 30°06' W 093°18'1 1.3
2018-Jun-08 07:00N 30°06' W 093°19'0 0.0
2018-Jun-08 06:30N 30°06' W 093°19'0 0.1
2018-Jun-08 06:00N 30°06' W 093°19'0 0.1
2018-Jun-08 05:31N 30°06' W 093°19'0 0.0
2018-Jun-08 05:00N 30°06' W 093°19'0 0.0
2018-Jun-08 04:31N 30°06' W 093°19'0 0.0
2018-Jun-08 04:00N 30°06' W 093°19'0 0.0
2018-Jun-08 03:31N 30°06' W 093°19'0 0.0
2018-Jun-08 03:01N 30°06' W 093°19'0 0.0
2018-Jun-08 02:30N 30°06' W 093°19'0 0.0
2018-Jun-08 02:01N 30°06' W 093°19'1 2.3
2018-Jun-08 01:30N 30°07' W 093°20'3 6.6
2018-Jun-08 01:01N 30°10' W 093°19'3 6.7
2018-Jun-08 00:30N 30°12' W 093°16'2 4.2
2018-Jun-08 00:00N 30°14' W 093°15'1 0.3
2018-Jun-07 21:23N 30°15' W 093°15'0 0.0
2018-Jun-07 20:55N 30°15' W 093°15'0 0.1
2018-Jun-07 20:28N 30°15' W 093°15'0 0.0
2018-Jun-07 18:04N 30°15' W 093°15'0 0.0
2018-Jun-07 18:00N 30°15' W 093°15'0 0.0
2018-Jun-07 17:11N 30°15' W 093°15'0 0.0
2018-Jun-07 16:59N 30°15' W 093°15'0 0.0
2018-Jun-07 16:30N 30°15' W 093°15'0 0.0
2018-Jun-07 14:51N 30°15' W 093°15'0 0.2
2018-Jun-07 14:23N 30°15' W 093°15'1 2.8
2018-Jun-07 13:59N 30°14' W 093°15'1 2.3
2018-Jun-07 13:30N 30°13' W 093°16'0 0.7
2018-Jun-07 13:00N 30°13' W 093°15'0 0.0
2018-Jun-07 12:29N 30°13' W 093°15'0 0.0
2018-Jun-07 12:01N 30°13' W 093°15'0 0.0
2018-Jun-07 11:30N 30°13' W 093°15'0 0.1
2018-Jun-07 11:00N 30°13' W 093°15'0 0.1
2018-Jun-07 10:30N 30°13' W 093°15'3 5.9
2018-Jun-07 10:01N 30°11' W 093°18'3 6.4
2018-Jun-07 09:31N 30°08' W 093°20'3 5.2
2018-Jun-07 09:01N 30°06' W 093°19'2 3.1
2018-Jun-07 08:31N 30°05' W 093°18'1 1.8
2018-Jun-07 07:59N 30°05' W 093°17'0 0.0
2018-Jun-07 07:31N 30°05' W 093°17'0 0.0
2018-Jun-07 06:57N 30°05' W 093°17'0 0.0
2018-Jun-07 06:31N 30°05' W 093°17'0 0.0
2018-Jun-07 06:00N 30°05' W 093°17'0 0.0
2018-Jun-07 05:30N 30°05' W 093°17'0 0.0
2018-Jun-07 05:01N 30°05' W 093°17'0 0.0
2018-Jun-07 04:30N 30°05' W 093°17'0 0.0
2018-Jun-07 04:01N 30°05' W 093°17'0 0.0
2018-Jun-07 03:27N 30°05' W 093°17'0 0.0
2018-Jun-07 03:01N 30°05' W 093°17'0 0.0
2018-Jun-07 02:30N 30°05' W 093°17'0 0.0
2018-Jun-07 02:00N 30°05' W 093°17'0 0.0
2018-Jun-07 01:30N 30°05' W 093°17'0 0.0
2018-Jun-07 01:00N 30°05' W 093°17'0 0.0
2018-Jun-07 00:30N 30°05' W 093°17'0 0.0
2018-Jun-07 00:00N 30°05' W 093°17'0 0.0
2018-Jun-06 23:30N 30°05' W 093°17'0 0.0
2018-Jun-06 22:59N 30°05' W 093°17'0 0.0
2018-Jun-06 22:30N 30°05' W 093°17'0 0.0
2018-Jun-06 21:59N 30°05' W 093°17'0 0.0
2018-Jun-06 21:30N 30°05' W 093°17'2 4.0
2018-Jun-06 21:00N 30°03' W 093°16'3 6.2
2018-Jun-06 20:30N 30°00' W 093°14'2 4.8
2018-Jun-06 20:00N 29°58' W 093°12'3 6.6
2018-Jun-06 19:30N 29°56' W 093°09'23 2.2
2018-Jun-06 09:14N 29°57' W 092°43'0 0.0
2018-Jun-06 08:57N 29°57' W 092°43'0 0.0
2018-Jun-06 08:30N 29°57' W 092°43'19 3.9
2018-Jun-06 03:31N 29°51' W 092°22'0 6.4
2018-Jun-06 03:30N 29°51' W 092°22'3 5.9
2018-Jun-06 03:00N 29°50' W 092°18'3 6.8
2018-Jun-06 02:30N 29°48' W 092°15'3 5.5
2018-Jun-06 02:00N 29°47' W 092°12'1 1.2
2018-Jun-06 01:30N 29°47' W 092°12'0 0.2
2018-Jun-06 01:00N 29°47' W 092°12'0 0.0
2018-Jun-06 00:30N 29°47' W 092°12'1 2.5
2018-Jun-06 00:00N 29°46' W 092°12'3 6.7
2018-Jun-05 23:30N 29°43' W 092°15'3 6.4
2018-Jun-05 23:00N 29°40' W 092°15'  
2018-Jun-03 16:44N 29°50' W 091°58'1 3.3
2018-Jun-03 16:29N 29°50' W 091°59'1 3.0
2018-Jun-03 16:00N 29°49' W 092°01'2 3.1
2018-Jun-03 15:31N 29°49' W 092°03'1 2.7
2018-Jun-03 15:00N 29°48' W 092°04'1 2.9
2018-Jun-03 14:30N 29°48' W 092°06'2 3.1
2018-Jun-03 14:01N 29°47' W 092°07'1 1.1
2018-Jun-03 13:31N 29°47' W 092°08'0 0.8
2018-Jun-03 13:00N 29°47' W 092°08'2 3.3
2018-Jun-03 12:30N 29°47' W 092°10'0 0.8
2018-Jun-03 12:00N 29°47' W 092°11'0 0.0
2018-Jun-03 11:30N 29°47' W 092°11'0 0.0
2018-Jun-03 11:00N 29°47' W 092°11'0 0.0
2018-Jun-03 10:30N 29°47' W 092°11'0 0.0
2018-Jun-03 10:00N 29°47' W 092°11'0 0.0
2018-Jun-03 09:29N 29°47' W 092°11'0 0.0
2018-Jun-03 09:01N 29°47' W 092°11'0 0.5
2018-Jun-03 08:30N 29°47' W 092°10'3 6.1
2018-Jun-03 08:00N 29°48' W 092°07'3 6.0
2018-Jun-03 07:30N 29°49' W 092°04'2 3.8
2018-Jun-03 07:00N 29°49' W 092°02'2 3.5
2018-Jun-03 06:30N 29°50' W 091°60'2 3.9
2018-Jun-03 06:00N 29°50' W 091°58'  

Dump ship's entire track history